Time;durP1;ratioP1;P1;durP2;ratioP2;P2;SDS_P1;SDS_P2;PMS_P1;PMS_P2;Temp;Humidity;BMP_temperature;BMP_pressure;BME280_temperature;BME280_humidity;BME280_pressure;Samples;Min_cycle;Max_cycle;Signal;HPM_P1;HPM_P2
2021/07/04 00:01:15;;;;;;;;;9.25;9.25;;;;;19.48;77.61;100917.56;5008735;28;45562;-67
2021/07/04 00:03:40;;;;;;;;;12.25;10.50;;;;;19.46;78.06;100901.72;5010452;28;45684;-73
2021/07/04 00:06:06;;;;;;;;;8.75;8.25;;;;;19.44;76.95;100901.06;5010658;28;45519;-71
2021/07/04 00:08:31;;;;;;;;;11.50;8.75;;;;;19.41;77.56;100898.81;5008877;28;45581;-71
2021/07/04 00:11:04;;;;;;;;;10.25;10.25;;;;;19.41;77.49;100903.31;5008480;28;45469;-69
2021/07/04 00:13:30;;;;;;;;;10.00;9.00;;;;;19.37;78.07;100900.22;5002732;28;45490;-72
2021/07/04 00:15:56;;;;;;;;;8.25;8.00;;;;;19.38;78.20;100906.41;5009082;28;46438;-71
2021/07/04 00:18:26;;;;;;;;;8.00;8.00;;;;;19.35;78.29;100899.59;5011873;28;46323;-73
2021/07/04 00:20:53;;;;;;;;;10.50;9.00;;;;;19.34;77.90;100903.34;5008317;28;45451;-68
2021/07/04 00:23:20;;;;;;;;;12.50;9.75;;;;;19.34;78.24;100897.97;5010024;28;45592;-74
2021/07/04 00:25:46;;;;;;;;;9.00;9.00;;;;;19.33;77.69;100896.31;5008236;28;45651;-67
2021/07/04 00:28:12;;;;;;;;;11.00;10.00;;;;;19.31;78.24;100893.00;5009699;28;45560;-73
2021/07/04 00:30:38;;;;;;;;;11.00;9.50;;;;;19.30;78.52;100892.16;5008662;28;45442;-71
2021/07/04 00:33:05;;;;;;;;;8.25;8.25;;;;;19.29;77.87;100889.72;5009245;28;45552;-72
2021/07/04 00:35:31;;;;;;;;;7.75;6.75;;;;;19.28;78.17;100878.16;5009150;28;45730;-71
2021/07/04 00:37:57;;;;;;;;;11.25;8.50;;;;;19.27;78.25;100875.69;5007783;28;45374;-72
2021/07/04 00:40:24;;;;;;;;;8.75;8.75;;;;;19.25;78.47;100875.88;5008311;28;45517;-72
2021/07/04 00:42:50;;;;;;;;;11.75;10.50;;;;;19.22;78.62;100876.28;5012206;28;45536;-67
2021/07/04 00:45:21;;;;;;;;;7.25;7.00;;;;;19.20;79.12;100872.16;5008869;28;46464;-71
2021/07/04 00:47:47;;;;;;;;;9.50;8.50;;;;;19.20;79.16;100874.84;5009049;28;45384;-71
2021/07/04 00:50:14;;;;;;;;;11.75;10.75;;;;;19.19;79.09;100867.81;5008741;28;45617;-69
2021/07/04 00:52:41;;;;;;;;;8.25;7.50;;;;;19.18;79.15;100871.53;5009121;28;45616;-67
2021/07/04 00:55:08;;;;;;;;;6.25;6.25;;;;;19.17;79.42;100872.59;5008532;28;45470;-72
2021/07/04 00:57:34;;;;;;;;;7.50;7.50;;;;;19.16;79.06;100873.59;5026238;28;46090;-72
2021/07/04 01:00:01;;;;;;;;;10.75;9.50;;;;;19.16;79.50;100868.22;5010015;28;45877;-67
2021/07/04 01:02:29;;;;;;;;;11.50;10.75;;;;;19.12;78.76;100871.31;5008217;28;45459;-68
2021/07/04 01:04:55;;;;;;;;;10.25;9.00;;;;;19.08;78.69;100867.38;5008803;28;46131;-67
2021/07/04 01:07:21;;;;;;;;;11.00;9.00;;;;;19.07;79.77;100871.09;5001017;28;45343;-71
2021/07/04 01:09:46;;;;;;;;;12.25;11.75;;;;;19.07;79.47;100864.94;5008552;28;45506;-67
2021/07/04 01:12:12;;;;;;;;;7.50;7.50;;;;;19.04;78.80;100868.84;5010959;28;45585;-72
2021/07/04 01:14:38;;;;;;;;;9.25;9.00;;;;;19.00;78.65;100856.88;5008143;28;46052;-72
2021/07/04 01:17:04;;;;;;;;;12.25;10.25;;;;;18.95;78.77;100867.34;5007712;28;45824;-72
2021/07/04 01:19:29;;;;;;;;;9.50;8.00;;;;;18.91;78.44;100863.41;5008158;28;45510;-68
2021/07/04 01:21:56;;;;;;;;;8.00;7.00;;;;;18.89;77.99;100862.78;5008708;28;45451;-72
2021/07/04 01:24:22;;;;;;;;;14.25;10.50;;;;;18.84;78.21;100860.75;5004802;28;46293;-71
2021/07/04 01:26:49;;;;;;;;;11.00;8.75;;;;;18.82;78.56;100856.63;5008662;28;49370;-70
2021/07/04 01:29:14;;;;;;;;;11.50;8.50;;;;;18.80;77.99;100859.47;5006638;28;45486;-67
2021/07/04 01:31:40;;;;;;;;;11.00;8.50;;;;;18.76;78.03;100860.06;5007316;28;45556;-67
2021/07/04 01:34:06;;;;;;;;;8.00;8.00;;;;;18.70;78.36;100854.47;5007785;28;45499;-66
2021/07/04 01:36:32;;;;;;;;;10.75;8.50;;;;;18.69;79.54;100857.34;5009793;28;45604;-71
2021/07/04 01:38:57;;;;;;;;;9.50;6.25;;;;;18.64;78.35;100855.28;5007810;28;45600;-67
2021/07/04 01:41:23;;;;;;;;;9.00;8.25;;;;;18.62;78.23;100860.00;5012796;28;45509;-71
2021/07/04 01:43:49;;;;;;;;;8.00;8.00;;;;;18.62;78.73;100856.47;5008540;28;46619;-73
2021/07/04 01:46:14;;;;;;;;;10.00;7.75;;;;;18.61;78.96;100852.16;5007682;28;45752;-68
2021/07/04 01:48:40;;;;;;;;;7.75;7.75;;;;;18.60;79.04;100848.66;5009143;28;45502;-67
2021/07/04 01:51:05;;;;;;;;;9.50;7.50;;;;;18.60;79.37;100845.97;5009536;28;45473;-67
2021/07/04 01:53:31;;;;;;;;;9.00;8.50;;;;;18.58;78.94;100845.34;5024448;28;46930;-74
2021/07/04 01:55:56;;;;;;;;;11.25;7.75;;;;;18.58;79.49;100845.34;5001851;28;45570;-69
2021/07/04 01:58:22;;;;;;;;;10.50;7.25;;;;;18.56;79.71;100850.06;5007135;28;45548;-71
2021/07/04 02:00:47;;;;;;;;;8.75;7.75;;;;;18.55;79.65;100840.41;5008675;28;45495;-72
2021/07/04 02:03:13;;;;;;;;;8.75;8.25;;;;;18.53;79.25;100845.13;5009790;28;45468;-67
2021/07/04 02:05:39;;;;;;;;;8.50;7.50;;;;;18.51;79.02;100844.50;5007325;28;45379;-71
2021/07/04 02:08:06;;;;;;;;;8.00;8.00;;;;;18.48;79.39;100844.91;5007663;28;45812;-68
2021/07/04 02:10:38;;;;;;;;;8.50;8.25;;;;;18.45;79.06;100843.44;5006965;28;45497;-71
2021/07/04 02:13:06;;;;;;;;;8.25;8.00;;;;;18.41;79.72;100847.53;5002275;28;45575;-67
2021/07/04 02:15:33;;;;;;;;;9.00;6.75;;;;;18.40;79.33;100843.22;5009449;28;45634;-68
2021/07/04 02:18:18;;;;;;;;;9.00;8.75;;;;;18.41;79.02;100842.19;5005203;28;45386;-67
2021/07/04 02:20:46;;;;;;;;;8.25;7.50;;;;;18.39;79.52;100840.72;5004749;28;45509;-71
2021/07/04 02:23:16;;;;;;;;;7.25;7.00;;;;;18.37;79.73;100840.94;5007940;28;45754;-69
2021/07/04 02:25:43;;;;;;;;;9.75;8.25;;;;;18.39;79.30;100843.41;5023204;28;45942;-70
2021/07/04 02:28:11;;;;;;;;;7.75;7.75;;;;;18.41;79.65;100833.34;5007527;28;45462;-70
2021/07/04 02:30:37;;;;;;;;;7.50;7.50;;;;;18.45;79.69;100838.09;5006862;28;45545;-69
2021/07/04 02:33:06;;;;;;;;;8.50;7.00;;;;;18.45;79.38;100835.41;5009243;28;46472;-66
2021/07/04 02:35:38;;;;;;;;;8.75;7.75;;;;;18.46;78.83;100842.41;5000984;28;45554;-72
2021/07/04 02:38:05;;;;;;;;;8.75;8.00;;;;;18.45;79.38;100838.09;5008266;28;45945;-69
2021/07/04 02:40:31;;;;;;;;;6.75;5.25;;;;;18.46;79.26;100830.88;5004897;28;46758;-67
2021/07/04 02:42:58;;;;;;;;;8.75;7.25;;;;;18.47;79.78;100821.81;5004725;28;46040;-70
2021/07/04 02:45:24;;;;;;;;;7.25;6.75;;;;;18.48;79.92;100829.66;5009354;28;45554;-67
2021/07/04 02:47:50;;;;;;;;;6.00;5.75;;;;;18.49;79.22;100830.47;5006876;28;45555;-69
2021/07/04 02:50:20;;;;;;;;;6.75;6.75;;;;;18.49;78.92;100833.16;5010538;28;45587;-70
2021/07/04 02:52:46;;;;;;;;;9.25;8.00;;;;;18.49;79.23;100830.47;5010789;28;46515;-73
2021/07/04 02:55:11;;;;;;;;;9.25;7.00;;;;;18.50;79.15;100828.66;5013845;28;45752;-67
2021/07/04 02:57:37;;;;;;;;;7.75;6.25;;;;;18.51;78.86;100833.78;5012887;28;45480;-68
2021/07/04 03:00:09;;;;;;;;;6.00;5.75;;;;;18.50;79.49;100828.66;5009441;28;45581;-69
2021/07/04 03:02:35;;;;;;;;;9.00;7.25;;;;;18.45;79.56;100826.56;5010842;28;46482;-71
2021/07/04 03:05:02;;;;;;;;;8.75;7.75;;;;;18.45;79.30;100823.91;5009479;28;45422;-72
2021/07/04 03:07:27;;;;;;;;;6.00;6.00;;;;;18.44;79.80;100816.88;5009192;28;45515;-70
2021/07/04 03:09:52;;;;;;;;;9.00;6.75;;;;;18.45;79.01;100818.53;5012122;28;45375;-72
2021/07/04 03:12:18;;;;;;;;;7.25;6.00;;;;;18.44;79.36;100816.88;5013748;28;45516;-67
2021/07/04 03:14:43;;;;;;;;;10.75;8.00;;;;;18.46;78.88;100804.13;5011027;28;45791;-68
2021/07/04 03:17:09;;;;;;;;;7.00;6.00;;;;;18.48;79.90;100810.13;5010189;28;45697;-68
2021/07/04 03:19:34;;;;;;;;;6.25;6.25;;;;;18.51;79.72;100817.72;5009326;28;45812;-68
2021/07/04 03:21:59;;;;;;;;;6.00;4.75;;;;;18.53;78.77;100818.38;5010773;28;45513;-72
2021/07/04 03:24:25;;;;;;;;;7.75;6.50;;;;;18.51;78.93;100815.06;5011805;28;45537;-70
2021/07/04 03:26:50;;;;;;;;;7.00;6.00;;;;;18.50;79.48;100813.41;5009482;28;45451;-67
2021/07/04 03:29:16;;;;;;;;;5.50;5.25;;;;;18.50;79.38;100810.75;5008395;28;45488;-67
2021/07/04 03:31:41;;;;;;;;;7.25;7.00;;;;;18.50;79.07;100810.75;5011352;28;45957;-67
2021/07/04 03:34:08;;;;;;;;;7.25;7.25;;;;;18.50;79.14;100810.75;5004532;28;45668;-68
2021/07/04 03:36:33;;;;;;;;;9.25;6.25;;;;;18.50;78.86;100805.38;5012915;28;45839;-68
2021/07/04 03:38:59;;;;;;;;;7.00;6.00;;;;;18.53;80.18;100810.34;5005047;28;45632;-69
2021/07/04 03:41:25;;;;;;;;;7.50;5.00;;;;;18.55;79.91;100807.47;5008273;28;45483;-67
2021/07/04 03:43:50;;;;;;;;;5.50;5.50;;;;;18.47;81.27;100800.41;5015070;28;45593;-67
2021/07/04 03:46:15;;;;;;;;;7.00;6.75;;;;;18.45;82.22;100794.47;5007964;28;45880;-68
2021/07/04 03:48:41;;;;;;;;;6.75;6.00;;;;;18.45;82.58;100792.59;5007067;28;45473;-67
2021/07/04 03:51:06;;;;;;;;;8.00;6.25;;;;;18.45;82.15;100794.47;5012424;28;45490;-68
2021/07/04 03:53:32;;;;;;;;;6.00;6.00;;;;;18.47;82.57;100797.75;5009139;28;45492;-68
2021/07/04 03:55:57;;;;;;;;;7.00;7.00;;;;;18.50;82.16;100793.88;5007767;28;45472;-71
2021/07/04 03:58:23;;;;;;;;;6.50;6.50;;;;;18.50;82.90;100789.34;5009248;28;45901;-70
2021/07/04 04:00:49;;;;;;;;;7.25;4.50;;;;;18.52;82.17;100786.44;5005329;28;45952;-69
2021/07/04 04:03:14;;;;;;;;;5.25;5.25;;;;;18.55;82.22;100794.09;5009432;28;46052;-69
2021/07/04 04:05:39;;;;;;;;;6.25;5.75;;;;;18.55;82.44;100797.59;5006490;28;46127;-67
2021/07/04 04:08:06;;;;;;;;;7.75;7.75;;;;;18.58;82.00;100797.19;5009554;28;45384;-68
2021/07/04 04:10:32;;;;;;;;;6.25;5.50;;;;;18.59;82.72;100798.81;5006642;28;46146;-68
2021/07/04 04:12:58;;;;;;;;;7.00;5.00;;;;;18.58;84.36;100805.22;5009444;28;45864;-72
2021/07/04 04:15:23;;;;;;;;;7.75;6.25;;;;;18.48;84.79;100813.59;5009235;28;45705;-72
2021/07/04 04:17:49;;;;;;;;;5.25;5.00;;;;;18.44;85.33;100816.88;5009430;28;45477;-72
2021/07/04 04:20:14;;;;;;;;;6.25;6.00;;;;;18.39;85.57;100813.97;5006839;28;46453;-67
2021/07/04 04:22:39;;;;;;;;;5.00;3.50;;;;;18.35;85.11;100824.25;5006621;28;45423;-73
2021/07/04 04:25:05;;;;;;;;;4.00;4.00;;;;;18.30;86.09;100837.41;5005284;28;45562;-67
2021/07/04 04:27:31;;;;;;;;;3.75;3.50;;;;;18.21;86.35;100838.56;5009530;28;45588;-68
2021/07/04 04:29:56;;;;;;;;;6.75;4.75;;;;;18.13;87.97;100839.56;5005778;28;47051;-72
2021/07/04 04:32:21;;;;;;;;;5.00;5.00;;;;;18.09;88.46;100840.16;5006812;28;45543;-72
2021/07/04 04:34:47;;;;;;;;;4.00;4.00;;;;;18.08;88.25;100833.97;5007637;28;45521;-67
2021/07/04 04:37:12;;;;;;;;;4.00;4.00;;;;;18.08;88.32;100823.28;5005802;28;45545;-75
2021/07/04 04:39:38;;;;;;;;;6.50;3.25;;;;;18.04;88.17;100812.13;5002632;28;45553;-70
2021/07/04 04:42:04;;;;;;;;;4.25;4.25;;;;;18.04;89.01;100811.31;5011335;28;45549;-71
2021/07/04 04:44:29;;;;;;;;;4.50;2.50;;;;;17.97;88.42;100810.44;5006982;28;45628;-70
2021/07/04 04:46:54;;;;;;;;;5.50;4.00;;;;;17.89;89.01;100797.25;5005211;28;45585;-71
2021/07/04 04:49:20;;;;;;;;;5.50;4.00;;;;;17.82;89.92;100776.63;5001659;28;46465;-67
2021/07/04 04:51:45;;;;;;;;;5.50;4.00;;;;;17.82;90.59;100771.28;5007740;28;45376;-68
2021/07/04 04:54:10;;;;;;;;;7.50;5.25;;;;;17.75;90.54;100765.03;5008533;28;45617;-68
2021/07/04 04:56:36;;;;;;;;;5.00;4.00;;;;;17.74;91.39;100763.38;5003976;28;45553;-68
2021/07/04 04:59:03;;;;;;;;;7.50;4.00;;;;;17.78;91.12;100769.19;5005929;28;46761;-68
2021/07/04 05:01:29;;;;;;;;;4.00;4.00;;;;;17.79;91.11;100765.47;5006595;28;45463;-71
2021/07/04 05:03:55;;;;;;;;;4.00;4.00;;;;;17.81;91.58;100768.81;5006238;28;45473;-71
2021/07/04 05:06:21;;;;;;;;;4.00;4.00;;;;;17.83;91.58;100785.50;5009768;28;45662;-68
2021/07/04 05:08:46;;;;;;;;;5.00;5.00;;;;;17.81;91.04;100774.16;5005669;28;45701;-71
2021/07/04 05:11:12;;;;;;;;;5.50;3.50;;;;;17.81;91.54;100784.84;5003650;28;45642;-72
2021/07/04 05:13:38;;;;;;;;;5.00;5.00;;;;;17.81;91.28;100785.69;5005390;28;45571;-67
2021/07/04 05:16:04;;;;;;;;;3.00;3.00;;;;;17.82;91.36;100791.84;5003613;28;45596;-70
2021/07/04 05:18:30;;;;;;;;;4.00;4.00;;;;;17.81;91.49;100801.72;5007514;28;46465;-68
2021/07/04 05:20:55;;;;;;;;;3.25;3.25;;;;;17.74;90.79;100803.47;5003805;28;45586;-68
2021/07/04 05:23:21;;;;;;;;;5.00;4.00;;;;;17.69;90.81;100808.59;5004312;28;45558;-68
2021/07/04 05:25:46;;;;;;;;;6.00;5.00;;;;;17.65;90.71;100803.81;5004206;28;45672;-68
2021/07/04 05:28:11;;;;;;;;;5.25;4.25;;;;;17.63;90.69;100822.75;5003023;28;45386;-67
2021/07/04 05:30:37;;;;;;;;;4.25;3.50;;;;;17.61;89.61;100816.75;5006887;28;45426;-74
2021/07/04 05:33:03;;;;;;;;;4.00;4.00;;;;;17.61;91.46;100814.09;5005029;28;45449;-74
2021/07/04 05:35:28;;;;;;;;;6.00;5.00;;;;;17.62;90.03;100818.41;5003557;28;45410;-68
2021/07/04 05:37:54;;;;;;;;;4.25;4.00;;;;;17.65;90.66;100812.66;5004527;28;46502;-68
2021/07/04 05:40:19;;;;;;;;;6.00;4.50;;;;;17.69;90.78;100810.44;5003289;28;45515;-72
2021/07/04 05:42:45;;;;;;;;;7.75;6.00;;;;;17.77;90.95;100810.28;5008149;28;45481;-73
2021/07/04 05:45:15;;;;;;;;;6.00;5.00;;;;;17.86;91.09;100813.69;5003022;28;45479;-67
2021/07/04 05:47:41;;;;;;;;;4.75;4.75;;;;;17.94;91.00;100805.50;5000587;28;46933;-68
2021/07/04 05:50:06;;;;;;;;;5.00;5.00;;;;;17.95;90.51;100796.44;5002042;28;45506;-67
2021/07/04 05:52:32;;;;;;;;;6.00;5.00;;;;;17.98;90.46;100793.41;5003900;28;45457;-66
2021/07/04 05:54:57;;;;;;;;;6.50;6.00;;;;;18.04;91.04;100796.09;5004333;28;45449;-72
2021/07/04 05:57:23;;;;;;;;;6.75;4.50;;;;;18.10;90.22;100788.31;5006562;28;46445;-69
2021/07/04 05:59:48;;;;;;;;;6.50;4.00;;;;;18.18;89.83;100794.31;4999256;28;46169;-72
2021/07/04 06:02:13;;;;;;;;;4.75;4.75;;;;;18.19;89.92;100793.28;4998729;28;45640;-68
2021/07/04 06:04:39;;;;;;;;;5.50;5.50;;;;;18.20;90.16;100794.13;4996391;28;45549;-72
2021/07/04 06:07:04;;;;;;;;;6.50;6.50;;;;;18.18;89.40;100796.19;4997500;28;47276;-72
2021/07/04 06:09:30;;;;;;;;;5.75;5.75;;;;;18.18;89.08;100793.50;5003279;28;45513;-72
2021/07/04 06:11:56;;;;;;;;;7.00;5.75;;;;;18.18;87.91;100788.97;5003270;28;45433;-67
2021/07/04 06:14:21;;;;;;;;;7.00;6.00;;;;;18.21;87.17;100783.22;5002102;28;45523;-73
2021/07/04 06:16:47;;;;;;;;;7.00;5.75;;;;;18.24;88.37;100787.34;4998941;28;45606;-73
2021/07/04 06:19:12;;;;;;;;;7.50;6.00;;;;;18.32;87.34;100791.72;5000687;28;45617;-68
2021/07/04 06:21:38;;;;;;;;;8.75;7.50;;;;;18.36;88.36;100795.66;5006373;28;45563;-72
2021/07/04 06:24:03;;;;;;;;;7.50;6.00;;;;;18.45;88.11;100792.59;5001903;28;47120;-71
2021/07/04 06:26:29;;;;;;;;;5.00;5.00;;;;;18.55;87.55;100796.78;5005783;28;46202;-66
2021/07/04 06:28:55;;;;;;;;;6.25;6.25;;;;;18.62;86.79;100798.44;5002251;28;45501;-68
2021/07/04 06:31:20;;;;;;;;;6.75;6.75;;;;;18.70;86.52;100798.25;5007013;28;45540;-69
2021/07/04 06:33:48;;;;;;;;;5.75;5.75;;;;;18.83;86.06;100788.63;5005787;28;45897;-68
2021/07/04 06:36:13;;;;;;;;;5.75;5.50;;;;;18.99;86.56;100790.94;5008032;28;46937;-74
2021/07/04 06:38:39;;;;;;;;;6.00;6.00;;;;;19.16;85.40;100793.22;5004038;28;45468;-68
2021/07/04 06:41:04;;;;;;;;;6.75;4.50;;;;;19.26;85.28;100785.59;5005891;28;45670;-70
2021/07/04 06:43:30;;;;;;;;;6.50;3.75;;;;;19.39;84.48;100788.31;5010775;28;45582;-74
2021/07/04 06:45:55;;;;;;;;;6.00;5.50;;;;;19.55;84.32;100787.88;5005368;28;46366;-68
2021/07/04 06:48:21;;;;;;;;;4.25;4.00;;;;;19.68;83.54;100788.94;5010150;28;45477;-67
2021/07/04 06:50:46;;;;;;;;;4.50;4.50;;;;;19.73;82.67;100773.03;5006729;28;45597;-68
2021/07/04 06:53:12;;;;;;;;;4.75;4.75;;;;;19.79;81.61;100777.59;5004677;28;45986;-68
2021/07/04 06:55:37;;;;;;;;;4.75;4.75;;;;;19.80;81.62;100789.94;5007190;28;47070;-69
2021/07/04 06:58:03;;;;;;;;;4.75;3.75;;;;;19.86;82.26;100777.56;5007082;28;45964;-69
2021/07/04 07:00:28;;;;;;;;;5.75;5.00;;;;;19.93;82.32;100773.84;5009183;28;45784;-71
2021/07/04 07:02:54;;;;;;;;;4.00;4.00;;;;;20.04;82.38;100776.91;5004567;28;46915;-70
2021/07/04 07:05:19;;;;;;;;;4.75;4.75;;;;;20.14;82.03;100782.66;5005619;28;45374;-75
2021/07/04 07:07:45;;;;;;;;;5.00;4.50;;;;;20.23;81.33;100785.91;5004589;28;45610;-67
2021/07/04 07:10:12;;;;;;;;;4.00;4.00;;;;;20.33;80.03;100779.09;4999171;28;45493;-65
2021/07/04 07:12:39;;;;;;;;;4.00;4.00;;;;;20.45;79.19;100781.09;5008947;28;45465;-66
2021/07/04 07:15:05;;;;;;;;;5.75;4.50;;;;;20.52;78.46;100785.38;5005842;28;46452;-70
2021/07/04 07:17:31;;;;;;;;;5.25;4.75;;;;;20.71;79.47;100778.31;5004265;28;45564;-65
2021/07/04 07:19:56;;;;;;;;;6.00;4.75;;;;;21.07;79.75;100790.28;5004846;28;45684;-73
2021/07/04 07:22:22;;;;;;;;;5.00;4.00;;;;;21.45;77.14;100795.59;5005741;28;45656;-65
2021/07/04 07:24:48;;;;;;;;;4.75;3.75;;;;;21.51;76.69;100791.22;5006257;28;46370;-69
2021/07/04 07:27:13;;;;;;;;;3.00;3.00;;;;;21.34;72.51;100784.69;5009676;28;45448;-70
2021/07/04 07:29:39;;;;;;;;;3.75;3.75;;;;;21.07;74.55;100789.44;5006036;28;45912;-73
2021/07/04 07:32:05;;;;;;;;;4.00;4.00;;;;;20.91;76.24;100798.84;5005660;28;45513;-66
2021/07/04 07:34:30;;;;;;;;;5.00;4.00;;;;;20.85;75.70;100799.75;5006166;28;46298;-70
2021/07/04 07:36:56;;;;;;;;;4.00;3.50;;;;;20.71;74.69;100797.09;5006693;28;45571;-75
2021/07/04 07:39:22;;;;;;;;;3.75;3.75;;;;;20.69;75.76;100801.84;5008335;28;45342;-75
2021/07/04 07:41:48;;;;;;;;;4.25;3.25;;;;;20.80;76.82;100811.13;5004426;28;45554;-64
2021/07/04 07:44:14;;;;;;;;;6.50;3.75;;;;;20.69;74.06;100804.53;5004919;28;45594;-74
2021/07/04 07:46:40;;;;;;;;;5.00;5.00;;;;;20.52;74.27;100811.41;5004370;28;45561;-66
2021/07/04 07:49:06;;;;;;;;;3.50;3.50;;;;;20.36;76.38;100813.53;5006472;28;45414;-71
2021/07/04 07:51:31;;;;;;;;;5.25;3.00;;;;;20.30;77.20;100806.34;5009204;28;45487;-64
2021/07/04 07:53:57;;;;;;;;;3.00;3.00;;;;;20.30;77.59;100811.72;4997887;28;47165;-66
2021/07/04 07:56:22;;;;;;;;;4.50;3.50;;;;;20.41;78.68;100811.03;5001521;28;45577;-70
2021/07/04 07:58:48;;;;;;;;;3.25;3.25;;;;;20.55;77.14;100811.84;5002944;28;45558;-75
2021/07/04 08:01:15;;;;;;;;;3.75;3.75;;;;;20.61;77.27;100812.84;4999324;28;46072;-74
2021/07/04 08:03:40;;;;;;;;;3.25;3.25;;;;;20.56;76.75;100813.50;5004162;28;45715;-74
2021/07/04 08:06:06;;;;;;;;;5.75;3.00;;;;;20.45;76.37;100819.50;5002448;28;45636;-66
2021/07/04 08:08:31;;;;;;;;;4.00;3.00;;;;;20.41;76.58;100818.28;5002103;28;45428;-64
2021/07/04 08:10:56;;;;;;;;;3.00;3.00;;;;;20.50;77.14;100813.47;5002075;28;45436;-74
2021/07/04 08:13:22;;;;;;;;;4.00;3.00;;;;;20.64;76.11;100814.28;5000078;28;46054;-74
2021/07/04 08:15:47;;;;;;;;;4.25;4.25;;;;;20.78;76.47;100811.31;4996465;28;45600;-73
2021/07/04 08:18:13;;;;;;;;;7.50;4.25;;;;;21.01;76.14;100808.09;5000941;28;45637;-70
2021/07/04 08:20:38;;;;;;;;;4.50;3.75;;;;;21.32;75.68;100798.38;5000300;28;45589;-74
2021/07/04 08:23:04;;;;;;;;;7.00;5.00;;;;;22.08;74.78;100791.91;5003454;28;47387;-65
2021/07/04 08:25:29;;;;;;;;;5.50;4.00;;;;;24.28;73.30;100777.75;5004317;28;45617;-64
2021/07/04 08:27:54;;;;;;;;;4.00;2.50;;;;;28.38;63.68;100771.88;5004889;28;45429;-64
2021/07/04 08:30:20;;;;;;;;;2.00;2.00;;;;;31.65;57.07;100759.91;5006725;28;45416;-64
2021/07/04 08:32:46;;;;;;;;;2.50;2.50;;;;;34.35;51.46;100758.56;5002275;28;45895;-65
2021/07/04 08:35:12;;;;;;;;;5.50;4.25;;;;;36.68;46.57;100752.88;5003305;28;45471;-71
2021/07/04 08:37:38;;;;;;;;;3.50;3.00;;;;;38.62;43.42;100756.88;5004605;28;45605;-66
2021/07/04 08:40:05;;;;;;;;;3.75;2.00;;;;;40.40;40.34;100774.25;5003654;28;45616;-75
2021/07/04 08:42:30;;;;;;;;;3.25;3.00;;;;;41.68;36.94;100765.03;5011335;28;45539;-74
2021/07/04 08:44:56;;;;;;;;;2.00;2.00;;;;;42.30;34.73;100773.56;5004009;28;45389;-75
2021/07/04 08:47:24;;;;;;;;;0.25;0.25;;;;;41.16;34.66;100783.53;5004853;28;45702;-74
2021/07/04 08:49:52;;;;;;;;;1.00;1.00;;;;;41.28;34.93;100779.09;5003614;28;45534;-66
2021/07/04 08:52:18;;;;;;;;;2.25;1.00;;;;;41.88;35.12;100779.75;5001097;28;47245;-75
2021/07/04 08:54:44;;;;;;;;;0.00;0.00;;;;;42.49;31.07;100781.16;5004518;28;45496;-71
2021/07/04 08:57:10;;;;;;;;;0.00;0.00;;;;;43.13;30.94;100782.38;5004865;28;46216;-71
2021/07/04 08:59:37;;;;;;;;;0.00;0.00;;;;;43.56;29.93;100785.09;5004683;28;45564;-66
2021/07/04 09:02:03;;;;;;;;;0.00;0.00;;;;;43.85;29.30;100791.16;5004370;28;46676;-75
2021/07/04 09:04:29;;;;;;;;;0.00;0.00;;;;;44.06;28.10;100794.25;4998179;28;45505;-67
2021/07/04 09:06:55;;;;;;;;;0.00;0.00;;;;;44.48;27.33;100798.00;5001569;28;45513;-75
2021/07/04 09:09:21;;;;;;;;;0.75;0.00;;;;;44.91;27.49;100793.75;5003780;28;45615;-64
2021/07/04 09:11:58;;;;;;;;;0.00;0.00;;;;;45.57;26.83;100784.78;5003333;28;45693;-74
2021/07/04 09:14:38;;;;;;;;;0.00;0.00;;;;;45.75;25.98;100780.16;5004681;28;45590;-75
2021/07/04 09:17:11;;;;;;;;;0.00;0.00;;;;;45.90;25.58;100786.63;5004628;28;45660;-65
2021/07/04 09:19:52;;;;;;;;;0.00;0.00;;;;;45.98;25.11;100784.69;5004457;28;45607;-74
2021/07/04 09:22:26;;;;;;;;;0.00;0.00;;;;;45.82;24.64;100785.75;5001001;28;45643;-67
2021/07/04 09:24:51;;;;;;;;;0.00;0.00;;;;;45.12;25.13;100781.97;5004511;28;45446;-65
2021/07/04 09:27:17;;;;;;;;;0.00;0.00;;;;;44.52;25.57;100776.56;5006410;28;45494;-65
2021/07/04 09:29:51;;;;;;;;;0.75;0.75;;;;;43.50;25.93;100783.81;5003266;28;45747;-74
2021/07/04 09:32:24;;;;;;;;;0.00;0.00;;;;;42.41;25.72;100763.53;5002501;28;47623;-65
2021/07/04 09:35:14;;;;;;;;;0.00;0.00;;;;;41.24;28.61;100762.34;5003956;28;45825;-74
2021/07/04 09:37:48;;;;;;;;;0.00;0.00;;;;;39.96;29.29;100760.25;5003886;28;45443;-71
2021/07/04 09:40:15;;;;;;;;;1.50;0.00;;;;;39.25;29.26;100753.19;5000711;28;45532;-65
2021/07/04 09:43:07;;;;;;;;;0.00;0.00;;;;;38.90;30.40;100746.09;5012814;28;45837;-74
2021/07/04 09:46:09;;;;;;;;;0.00;0.00;;;;;37.70;30.90;100748.56;5006811;28;45438;-71
2021/07/04 09:48:40;;;;;;;;;0.00;0.00;;;;;36.62;32.26;100745.91;5005878;28;45411;-71
2021/07/04 09:51:24;;;;;;;;;0.00;0.00;;;;;35.46;33.01;100739.66;5004535;28;45569;-67
2021/07/04 09:53:58;;;;;;;;;2.00;0.25;;;;;34.13;34.64;100744.78;5002737;28;46595;-67
2021/07/04 09:56:25;;;;;;;;;0.25;0.25;;;;;32.83;36.47;100746.59;5002571;28;45917;-65
2021/07/04 09:58:55;;;;;;;;;1.75;0.00;;;;;31.57;36.76;100746.03;5003179;28;45622;-74
2021/07/04 10:01:38;;;;;;;;;0.50;0.00;;;;;30.05;38.44;100755.03;5002207;28;45627;-65
2021/07/04 10:04:08;;;;;;;;;0.00;0.00;;;;;28.91;41.53;100754.34;5005941;28;45453;-70
2021/07/04 10:06:47;;;;;;;;;0.25;0.00;;;;;27.98;43.79;100760.59;5008578;28;45954;-69
2021/07/04 10:09:13;;;;;;;;;0.75;0.75;;;;;27.33;45.34;100756.41;5007220;28;45449;-72
2021/07/04 10:11:38;;;;;;;;;0.75;0.75;;;;;26.95;47.12;100755.50;5008922;28;45511;-67
2021/07/04 10:14:03;;;;;;;;;4.50;4.50;;;;;27.30;46.92;100755.03;5025712;28;48215;-67
2021/07/04 10:16:29;;;;;;;;;0.25;0.25;;;;;27.47;48.28;100751.31;5006255;28;45473;-65
2021/07/04 10:18:57;;;;;;;;;3.25;3.25;;;;;27.71;47.02;100752.56;5008100;28;45556;-66
2021/07/04 10:21:24;;;;;;;;;18.25;16.00;;;;;27.77;46.28;100753.38;5008115;28;46028;-74
2021/07/04 10:23:51;;;;;;;;;6.50;6.25;;;;;27.90;45.01;100752.16;5009225;28;46183;-65
2021/07/04 10:26:17;;;;;;;;;17.25;16.25;;;;;28.24;46.27;100744.38;5007469;28;45905;-68
2021/07/04 10:28:44;;;;;;;;;4.50;4.50;;;;;28.67;45.45;100731.47;5009513;28;45572;-67
2021/07/04 10:31:13;;;;;;;;;1.50;0.25;;;;;29.08;43.68;100734.22;5008498;28;45390;-66
2021/07/04 10:33:39;;;;;;;;;0.25;0.25;;;;;29.52;45.79;100737.16;5011630;28;47234;-65
2021/07/04 10:36:12;;;;;;;;;0.00;0.00;;;;;30.33;45.02;100734.47;5007219;28;45431;-74
2021/07/04 10:38:45;;;;;;;;;1.00;0.00;;;;;30.88;42.70;100735.19;5003501;28;45627;-65
2021/07/04 10:41:17;;;;;;;;;1.00;0.00;;;;;30.88;38.77;100735.19;5006574;28;45629;-66
2021/07/04 10:44:07;;;;;;;;;0.00;0.00;;;;;31.20;40.14;100731.91;5007436;28;45714;-65
2021/07/04 10:46:43;;;;;;;;;1.50;0.25;;;;;31.12;41.06;100732.53;5004467;28;45647;-65
2021/07/04 10:49:14;;;;;;;;;0.00;0.00;;;;;31.21;41.66;100724.56;5007623;28;46000;-72
2021/07/04 10:51:55;;;;;;;;;1.00;1.00;;;;;31.69;41.20;100721.88;5007131;28;45512;-73
2021/07/04 10:54:38;;;;;;;;;1.25;1.00;;;;;31.90;38.90;100722.47;5010014;28;46265;-74
2021/07/04 10:57:09;;;;;;;;;0.00;0.00;;;;;31.38;40.60;100711.28;5008236;28;45415;-67
2021/07/04 11:00:00;;;;;;;;;0.50;0.50;;;;;30.48;37.14;100725.38;5006834;28;45356;-72
2021/07/04 11:02:46;;;;;;;;;1.00;1.00;;;;;29.31;41.92;100725.50;5002687;28;45610;-66
2021/07/04 11:05:40;;;;;;;;;1.00;0.25;;;;;28.48;44.57;100723.81;5005901;28;46766;-65
2021/07/04 11:08:09;;;;;;;;;0.25;0.25;;;;;27.88;44.54;100717.91;5004850;28;45540;-66
2021/07/04 11:10:48;;;;;;;;;1.75;1.00;;;;;27.58;45.41;100715.03;5001509;28;45554;-71
2021/07/04 11:13:25;;;;;;;;;0.50;0.25;;;;;27.20;45.59;100720.50;4999528;28;45606;-74
2021/07/04 11:16:05;;;;;;;;;2.00;2.00;;;;;27.04;47.76;100718.69;5004597;28;45831;-66
2021/07/04 11:18:50;;;;;;;;;4.50;4.00;;;;;27.14;49.37;100705.22;5005013;28;46129;-67
2021/07/04 11:21:19;;;;;;;;;2.00;2.00;;;;;27.50;49.00;100708.19;5004859;28;45482;-66
2021/07/04 11:23:44;;;;;;;;;2.25;0.50;;;;;28.19;46.41;100701.75;5005115;28;45548;-73
2021/07/04 11:26:13;;;;;;;;;4.25;0.75;;;;;28.82;47.85;100701.56;5002764;28;47181;-76